Time;durP1;ratioP1;P1;durP2;ratioP2;P2;SDS_P1;SDS_P2;PMS_P1;PMS_P2;Temp;Humidity;BMP_temperature;BMP_pressure;BME280_temperature;BME280_humidity;BME280_pressure;Samples;Min_cycle;Max_cycle;Signal;HPM_P1;HPM_P2
2023/10/18 00:00:32;;;;;;;5.43;3.97;;;6.00;99.90;;;;;;4933448;29;20047;-88
2023/10/18 00:03:01;;;;;;;4.93;3.22;;;6.00;99.90;;;;;;4929176;29;20059;-88
2023/10/18 00:05:28;;;;;;;5.50;3.83;;;6.00;99.90;;;;;;4898473;29;20036;-93
2023/10/18 00:07:57;;;;;;;7.55;4.68;;;6.00;99.90;;;;;;4914213;29;20056;-93
2023/10/18 00:10:24;;;;;;;6.18;4.07;;;6.00;99.90;;;;;;4899075;29;20032;-89
2023/10/18 00:12:52;;;;;;;5.35;3.28;;;5.90;99.90;;;;;;4929894;29;20384;-91
2023/10/18 00:15:21;;;;;;;5.72;4.38;;;5.90;99.90;;;;;;4914309;29;20031;-91
2023/10/18 00:17:48;;;;;;;6.13;3.65;;;5.90;99.90;;;;;;4930886;29;20051;-93
2023/10/18 00:20:15;;;;;;;6.13;3.78;;;5.90;99.90;;;;;;4914082;29;20044;-92
2023/10/18 00:22:45;;;;;;;5.63;3.92;;;5.90;99.90;;;;;;4928455;29;20028;-92
2023/10/18 00:25:11;;;;;;;5.82;4.07;;;5.90;99.90;;;;;;4931504;29;20027;-92
2023/10/18 00:27:45;;;;;;;6.95;3.25;;;5.90;99.90;;;;;;4933461;29;20556;-94
2023/10/18 00:30:11;;;;;;;4.97;4.13;;;5.90;99.90;;;;;;4931368;29;20966;-91
2023/10/18 00:32:43;;;;;;;6.43;4.57;;;5.90;99.90;;;;;;4917559;29;20036;-94
2023/10/18 00:35:23;;;;;;;6.43;4.78;;;5.80;99.90;;;;;;4932573;29;20535;-94
2023/10/18 00:37:49;;;;;;;;;;;5.80;99.90;;;;;;4921795;29;20055;-90
2023/10/18 00:46:06;;;;;;;7.20;4.47;;;5.80;99.90;;;;;;4927169;29;20044;-91
2023/10/18 00:48:33;;;;;;;8.75;4.85;;;5.80;99.90;;;;;;4928367;29;20050;-95
2023/10/18 00:50:59;;;;;;;6.55;4.30;;;5.80;99.90;;;;;;4914623;29;20046;-96
2023/10/18 00:53:26;;;;;;;6.88;4.20;;;5.80;99.90;;;;;;4913158;29;20078;-94
2023/10/18 00:55:57;;;;;;;6.63;3.88;;;5.80;99.90;;;;;;4931219;29;20094;-88
2023/10/18 00:58:23;;;;;;;6.72;4.38;;;5.80;99.90;;;;;;4912035;29;20439;-94
2023/10/18 01:00:51;;;;;;;6.45;4.13;;;5.80;99.90;;;;;;4929662;29;20032;-92
2023/10/18 01:03:29;;;;;;;5.82;3.63;;;5.80;99.90;;;;;;4928653;29;20027;-92
2023/10/18 01:05:59;;;;;;;6.13;3.40;;;5.80;99.90;;;;;;4930812;29;20110;-93
2023/10/18 01:08:26;;;;;;;5.38;3.22;;;5.70;99.90;;;;;;4912252;29;20528;-94
2023/10/18 01:10:51;;;;;;;7.43;4.07;;;5.70;99.90;;;;;;4929743;29;20047;-90
2023/10/18 01:13:20;;;;;;;7.55;4.25;;;5.70;99.90;;;;;;4897143;29;20036;-93
2023/10/18 01:15:46;;;;;;;6.00;4.10;;;5.70;99.90;;;;;;4911061;29;20670;-91
2023/10/18 01:18:12;;;;;;;9.80;6.07;;;5.70;99.90;;;;;;4916375;29;20038;-95
2023/10/18 01:20:40;;;;;;;8.27;5.13;;;5.70;99.90;;;;;;4930370;29;20401;-92
2023/10/18 01:23:10;;;;;;;6.05;4.68;;;5.60;99.90;;;;;;4927162;29;20028;-94
2023/10/18 01:25:35;;;;;;;6.15;4.10;;;5.60;99.90;;;;;;4931773;29;20452;-92
2023/10/18 01:28:01;;;;;;;6.93;4.60;;;5.60;99.90;;;;;;4933150;29;20103;-93
2023/10/18 01:30:29;;;;;;;5.43;2.95;;;5.60;99.90;;;;;;4931866;29;20024;-96
2023/10/18 01:32:55;;;;;;;7.55;4.28;;;5.60;99.90;;;;;;4931724;29;20031;-91
2023/10/18 01:35:21;;;;;;;7.35;5.13;;;5.60;99.90;;;;;;4916300;29;20555;-95
2023/10/18 01:37:49;;;;;;;8.10;4.03;;;5.60;99.90;;;;;;4929835;29;20027;-94
2023/10/18 01:40:22;;;;;;;6.53;3.78;;;5.60;99.90;;;;;;4913454;29;20118;-93
2023/10/18 01:42:58;;;;;;;6.65;4.20;;;5.60;99.90;;;;;;4915674;29;20028;-92
2023/10/18 01:45:30;;;;;;;6.53;3.55;;;5.60;99.90;;;;;;4930102;29;20047;-93
2023/10/18 01:47:56;;;;;;;7.80;4.55;;;5.60;99.90;;;;;;4925276;29;20032;-92
2023/10/18 01:50:22;;;;;;;7.68;4.93;;;5.60;99.90;;;;;;4913692;29;20404;-94
2023/10/18 01:52:48;;;;;;;6.97;4.95;;;5.60;99.90;;;;;;4928247;29;20031;-89
2023/10/18 01:55:14;;;;;;;6.65;4.60;;;5.60;99.90;;;;;;4931983;29;20059;-94
2023/10/18 01:57:42;;;;;;;8.45;5.13;;;5.50;99.90;;;;;;4926538;29;20032;-90
2023/10/18 02:00:15;;;;;;;7.72;5.13;;;5.50;99.90;;;;;;4930777;29;20203;-93
2023/10/18 02:02:40;;;;;;;8.88;4.88;;;5.50;99.90;;;;;;4897744;29;20113;-90
2023/10/18 02:05:08;;;;;;;6.55;3.97;;;5.50;99.90;;;;;;4934708;29;20048;-92
2023/10/18 02:07:35;;;;;;;6.60;4.07;;;5.50;99.90;;;;;;4931427;29;20082;-93
2023/10/18 02:10:02;;;;;;;7.32;5.22;;;5.50;99.90;;;;;;4917941;29;20032;-94
2023/10/18 02:12:29;;;;;;;8.35;4.93;;;5.50;99.90;;;;;;4935452;29;20022;-94
2023/10/18 02:15:01;;;;;;;7.35;5.45;;;5.40;99.90;;;;;;4931457;29;20039;-91
2023/10/18 02:17:27;;;;;;;7.10;4.70;;;5.40;99.90;;;;;;4938344;29;20116;-91
2023/10/18 02:19:54;;;;;;;10.30;7.13;;;5.40;99.90;;;;;;4933254;29;20035;-90
2023/10/18 02:22:19;;;;;;;8.05;5.72;;;5.40;99.90;;;;;;4931367;29;20024;-94
2023/10/18 02:24:45;;;;;;;6.88;5.05;;;5.40;99.90;;;;;;4917934;29;20503;-93
2023/10/18 02:27:19;;;;;;;8.90;4.90;;;5.40;99.90;;;;;;4932373;29;20281;-93
2023/10/18 02:29:46;;;;;;;9.82;5.82;;;5.40;99.90;;;;;;4932657;29;20086;-95
2023/10/18 02:32:23;;;;;;;7.97;5.03;;;5.40;99.90;;;;;;4915580;29;20038;-94
2023/10/18 02:34:51;;;;;;;7.18;4.72;;;5.40;99.90;;;;;;4937291;29;20039;-94
2023/10/18 02:37:17;;;;;;;7.22;5.00;;;5.40;99.90;;;;;;4935719;29;20035;-94
2023/10/18 02:39:42;;;;;;;7.35;4.60;;;5.40;99.90;;;;;;4936424;29;20163;-93
2023/10/18 02:42:08;;;;;;;6.55;4.90;;;5.30;99.90;;;;;;4930364;29;20039;-92
2023/10/18 02:44:35;;;;;;;7.40;5.25;;;5.30;99.90;;;;;;4933230;29;21158;-94
2023/10/18 02:47:22;;;;;;;7.78;5.65;;;5.30;99.90;;;;;;4936217;29;20039;-95
2023/10/18 02:49:51;;;;;;;10.95;7.00;;;5.30;99.90;;;;;;4929379;29;20059;-93
2023/10/18 02:52:17;;;;;;;9.68;6.22;;;5.30;99.90;;;;;;4932570;29;20102;-94
2023/10/18 02:54:45;;;;;;;9.15;5.68;;;5.30;99.90;;;;;;4917200;29;20571;-93
2023/10/18 02:57:13;;;;;;;9.25;5.82;;;5.30;99.90;;;;;;4935691;29;20079;-92
2023/10/18 02:59:41;;;;;;;9.90;6.30;;;5.20;99.90;;;;;;4931178;29;20520;-94
2023/10/18 03:02:13;;;;;;;9.52;6.05;;;5.20;99.90;;;;;;4931742;29;20034;-93
2023/10/18 03:04:39;;;;;;;9.88;6.45;;;5.20;99.90;;;;;;4931541;29;20035;-92
2023/10/18 03:07:08;;;;;;;9.80;5.97;;;5.20;99.90;;;;;;4915811;29;20433;-92
2023/10/18 03:12:02;;;;;;;8.05;6.15;;;5.20;99.90;;;;;;4934012;29;20063;-96
2023/10/18 03:14:41;;;;;;;12.50;7.88;;;5.20;99.90;;;;;;4933350;29;20063;-95
2023/10/18 03:17:23;;;;;;;10.20;6.20;;;5.20;99.90;;;;;;4930911;29;20107;-95
2023/10/18 03:19:50;;;;;;;8.60;6.05;;;5.20;99.90;;;;;;4931319;29;20036;-95
2023/10/18 03:22:19;;;;;;;9.75;6.25;;;5.20;99.90;;;;;;4931693;29;20024;-93
2023/10/18 03:24:54;;;;;;;7.63;5.32;;;5.10;99.90;;;;;;4930100;29;20548;-92
2023/10/18 03:27:21;;;;;;;9.43;5.78;;;5.10;99.90;;;;;;4913602;29;20044;-93
2023/10/18 03:29:47;;;;;;;12.57;8.48;;;5.20;99.90;;;;;;4933109;29;20091;-94
2023/10/18 03:32:19;;;;;;;11.73;8.15;;;5.10;99.90;;;;;;4928369;29;20032;-90
2023/10/18 03:34:46;;;;;;;12.10;7.55;;;5.10;99.90;;;;;;4929522;29;20032;-91
2023/10/18 03:37:27;;;;;;;11.80;7.28;;;5.10;99.90;;;;;;4927649;29;20035;-94
2023/10/18 03:39:53;;;;;;;13.35;9.25;;;5.10;99.90;;;;;;4927563;29;20040;-92
2023/10/18 03:42:31;;;;;;;11.88;7.90;;;5.20;99.90;;;;;;4909433;29;20031;-93
2023/10/18 03:44:58;;;;;;;13.88;9.73;;;5.20;99.90;;;;;;4930643;29;20396;-89
2023/10/18 03:47:24;;;;;;;13.30;8.48;;;5.20;99.90;;;;;;4929271;29;20019;-92
2023/10/18 03:49:53;;;;;;;11.32;7.40;;;5.10;99.90;;;;;;4913497;29;20038;-94
2023/10/18 03:52:22;;;;;;;10.35;6.82;;;5.20;99.90;;;;;;4901449;29;20039;-96
2023/10/18 03:57:28;;;;;;;9.23;6.93;;;5.20;99.90;;;;;;4931230;29;20039;-90
2023/10/18 03:59:58;;;;;;;9.18;5.97;;;5.20;99.90;;;;;;4929449;29;20048;-91
2023/10/18 04:02:27;;;;;;;10.75;7.00;;;5.10;99.90;;;;;;4931796;29;20020;-95
2023/10/18 04:04:58;;;;;;;10.98;7.22;;;5.10;99.90;;;;;;4930779;29;20186;-94
2023/10/18 04:07:24;;;;;;;11.18;6.45;;;5.10;99.90;;;;;;4929370;29;20028;-92
2023/10/18 04:09:53;;;;;;;11.15;7.38;;;5.20;99.90;;;;;;4914616;29;20562;-93
2023/10/18 04:12:22;;;;;;;10.50;6.82;;;5.10;99.90;;;;;;4915464;29;20050;-90
2023/10/18 04:15:00;;;;;;;8.63;6.32;;;5.20;99.90;;;;;;4934463;29;20032;-92
2023/10/18 04:20:22;;;;;;;10.10;5.95;;;5.10;99.90;;;;;;4931077;29;20122;-92
2023/10/18 04:22:51;;;;;;;10.15;6.80;;;5.10;99.90;;;;;;4934757;29;20326;-89
2023/10/18 04:25:27;;;;;;;9.98;6.38;;;5.10;99.90;;;;;;4912036;29;20027;-94
2023/10/18 04:27:57;;;;;;;7.68;4.90;;;5.10;99.90;;;;;;4930665;29;20072;-90
2023/10/18 04:30:24;;;;;;;10.40;6.90;;;5.10;99.90;;;;;;4925121;29;20067;-91
2023/10/18 04:32:54;;;;;;;10.40;6.50;;;5.10;99.90;;;;;;4929778;29;20031;-92
2023/10/18 04:35:25;;;;;;;7.07;5.57;;;5.10;99.90;;;;;;4931998;29;20604;-90
2023/10/18 04:37:55;;;;;;;9.32;5.57;;;5.20;99.90;;;;;;4933162;29;20484;-93
2023/10/18 04:40:25;;;;;;;7.43;5.37;;;5.10;99.90;;;;;;4932172;29;20043;-93
2023/10/18 04:42:54;;;;;;;8.20;5.28;;;5.10;99.90;;;;;;4932676;29;20075;-94
2023/10/18 04:45:23;;;;;;;9.98;5.45;;;5.10;99.90;;;;;;4932180;29;20042;-93
2023/10/18 04:47:57;;;;;;;8.13;4.93;;;5.10;99.90;;;;;;4930673;29;20028;-94
2023/10/18 04:50:29;;;;;;;11.23;7.03;;;5.10;99.90;;;;;;4925636;29;20040;-93
2023/10/18 04:52:58;;;;;;;8.40;5.65;;;5.10;99.90;;;;;;4927827;29;20024;-93
2023/10/18 04:55:25;;;;;;;9.48;6.13;;;5.10;99.90;;;;;;4929503;29;20035;-91
2023/10/18 04:57:53;;;;;;;9.48;6.20;;;5.10;99.90;;;;;;4913962;29;20035;-94
2023/10/18 05:00:35;;;;;;;10.95;6.55;;;5.10;99.90;;;;;;4929313;29;20067;-93
2023/10/18 05:03:07;;;;;;;8.70;6.38;;;5.10;99.90;;;;;;4912639;29;20028;-92
2023/10/18 05:05:39;;;;;;;8.05;5.43;;;5.10;99.90;;;;;;4932758;29;20521;-93
2023/10/18 05:08:06;;;;;;;8.57;5.47;;;5.10;99.90;;;;;;4928541;29;20099;-91
2023/10/18 05:10:33;;;;;;;6.82;5.18;;;5.10;99.90;;;;;;4909328;29;20024;-92
2023/10/18 05:13:18;;;;;;;7.43;4.40;;;5.10;99.90;;;;;;4930249;29;20129;-94
2023/10/18 05:15:44;;;;;;;6.80;4.15;;;5.10;99.90;;;;;;4929662;29;20031;-93
2023/10/18 05:18:15;;;;;;;6.97;3.97;;;5.10;99.90;;;;;;4934990;29;20500;-93
2023/10/18 05:20:46;;;;;;;6.60;4.10;;;5.10;99.90;;;;;;4899698;29;20044;-94
2023/10/18 05:23:21;;;;;;;6.72;4.28;;;5.00;99.90;;;;;;4931967;29;20083;-93
2023/10/18 05:25:48;;;;;;;7.05;4.78;;;5.10;99.90;;;;;;4938099;29;20036;-92
2023/10/18 05:33:47;;;;;;;9.18;5.18;;;5.10;99.90;;;;;;4930469;29;20040;-93
2023/10/18 05:41:35;;;;;;;10.27;6.32;;;5.00;99.90;;;;;;4933648;29;20032;-94
2023/10/18 05:44:00;;;;;;;8.70;5.55;;;5.00;99.90;;;;;;4923089;29;20055;-94
2023/10/18 05:46:33;;;;;;;7.85;4.93;;;5.00;99.90;;;;;;4934553;29;20035;-92
2023/10/18 05:49:00;;;;;;;10.85;6.75;;;5.00;99.90;;;;;;4935480;29;20027;-91
2023/10/18 05:51:32;;;;;;;7.32;4.68;;;5.00;99.90;;;;;;4934272;29;20071;-90
2023/10/18 05:53:59;;;;;;;10.68;6.10;;;5.00;99.90;;;;;;4928317;29;20048;-93
2023/10/18 05:56:35;;;;;;;12.15;6.47;;;4.90;99.90;;;;;;4933952;29;20070;-94
2023/10/18 06:01:43;;;;;;;7.68;4.88;;;4.90;99.90;;;;;;4936473;29;20429;-93
2023/10/18 06:04:08;;;;;;;10.05;7.05;;;4.90;99.90;;;;;;4932772;29;20059;-90
2023/10/18 06:06:37;;;;;;;10.13;6.93;;;4.90;99.90;;;;;;4935873;29;20067;-93
2023/10/18 06:09:10;;;;;;;11.60;6.85;;;4.90;99.90;;;;;;4933426;29;20047;-90
2023/10/18 06:11:38;;;;;;;10.73;6.68;;;4.90;99.90;;;;;;4933202;29;20510;-91
2023/10/18 06:14:16;;;;;;;8.15;5.13;;;4.90;99.90;;;;;;4931664;29;20046;-94
2023/10/18 06:16:42;;;;;;;7.50;4.95;;;4.90;99.90;;;;;;4935270;29;20028;-95
2023/10/18 06:19:13;;;;;;;7.75;5.80;;;4.90;99.90;;;;;;4917589;29;20066;-92
2023/10/18 06:21:49;;;;;;;;;;;4.90;99.90;;;;;;4922856;29;20032;-93
2023/10/18 06:24:16;;;;;;;9.18;5.93;;;4.90;99.90;;;;;;4924185;29;19917;-91
2023/10/18 06:26:44;;;;;;;8.93;5.18;;;4.90;99.90;;;;;;4935042;29;20099;-93
2023/10/18 06:29:11;;;;;;;8.07;5.50;;;4.90;99.90;;;;;;4935281;29;20067;-90
2023/10/18 06:31:43;;;;;;;8.77;5.43;;;4.90;99.90;;;;;;4917500;29;20087;-94
2023/10/18 06:34:30;;;;;;;7.20;4.63;;;4.90;99.90;;;;;;4936996;29;20039;-91
2023/10/18 06:36:56;;;;;;;8.13;4.97;;;4.90;99.90;;;;;;4934213;29;20547;-93
2023/10/18 06:39:25;;;;;;;9.73;5.40;;;5.00;99.90;;;;;;4935312;29;20031;-89
2023/10/18 06:41:57;;;;;;;8.43;5.82;;;5.00;99.90;;;;;;4901640;29;20118;-95
2023/10/18 06:44:30;;;;;;;10.05;5.80;;;5.00;99.90;;;;;;4932833;29;20040;-91
2023/10/18 06:46:57;;;;;;;10.55;6.47;;;5.10;99.90;;;;;;4931083;29;20492;-95
2023/10/18 06:49:26;;;;;;;9.43;6.28;;;5.10;99.90;;;;;;4905483;29;20043;-93
2023/10/18 06:51:52;;;;;;;8.52;5.65;;;5.10;99.90;;;;;;4936346;29;20036;-87
2023/10/18 06:54:30;;;;;;;11.15;6.88;;;5.10;99.90;;;;;;4933132;29;20050;-91
2023/10/18 06:56:57;;;;;;;9.27;5.93;;;5.20;99.90;;;;;;4912219;29;20055;-93
2023/10/18 06:59:27;;;;;;;9.15;6.00;;;5.20;99.90;;;;;;4932632;29;20067;-93
2023/10/18 07:01:59;;;;;;;9.98;6.15;;;5.30;99.90;;;;;;4931287;29;20166;-91
2023/10/18 07:04:28;;;;;;;8.30;5.20;;;5.30;99.90;;;;;;4932045;29;20031;-95
2023/10/18 07:06:54;;;;;;;9.20;6.72;;;5.30;99.90;;;;;;4918647;29;20035;-91
2023/10/18 07:09:26;;;;;;;7.97;5.43;;;5.40;99.90;;;;;;4913046;29;20031;-91
2023/10/18 07:11:57;;;;;;;10.45;6.15;;;5.40;99.90;;;;;;4931345;29;20051;-93
2023/10/18 07:14:26;;;;;;;8.88;6.43;;;5.50;99.90;;;;;;4933155;29;20035;-94
2023/10/18 07:16:54;;;;;;;9.90;6.82;;;5.50;99.90;;;;;;4930465;29;20027;-92
2023/10/18 07:22:27;;;;;;;9.55;6.78;;;5.60;99.90;;;;;;4886962;29;20040;-94
2023/10/18 07:24:59;;;;;;;8.82;5.00;;;5.60;99.90;;;;;;4913846;29;20036;-93
2023/10/18 07:27:29;;;;;;;7.43;5.38;;;5.70;99.90;;;;;;4915545;29;20027;-92
2023/10/18 07:29:58;;;;;;;8.30;5.72;;;5.70;99.90;;;;;;4929914;29;20090;-94
2023/10/18 07:32:24;;;;;;;10.43;6.43;;;5.80;99.90;;;;;;4935334;29;20040;-92
2023/10/18 07:34:54;;;;;;;8.13;5.35;;;5.90;99.90;;;;;;4898509;29;20034;-93
2023/10/18 07:37:32;;;;;;;7.13;5.45;;;5.90;99.90;;;;;;4901031;29;20035;-93
2023/10/18 07:39:59;;;;;;;9.07;5.80;;;5.90;99.90;;;;;;4933727;29;20619;-93
2023/10/18 07:42:26;;;;;;;7.82;5.28;;;6.00;99.90;;;;;;4933003;29;20023;-93
2023/10/18 07:44:53;;;;;;;6.15;4.18;;;6.10;99.90;;;;;;4931236;29;20035;-94
2023/10/18 07:47:20;;;;;;;8.77;6.38;;;6.10;99.90;;;;;;4933984;29;20063;-95
2023/10/18 07:49:46;;;;;;;7.22;5.45;;;6.20;99.90;;;;;;4898699;29;20122;-93
2023/10/18 07:52:13;;;;;;;7.07;5.07;;;6.20;99.90;;;;;;4912561;29;20046;-90
2023/10/18 07:54:39;;;;;;;9.38;6.30;;;6.20;99.90;;;;;;4897941;29;20476;-92
2023/10/18 07:57:15;;;;;;;11.98;7.72;;;6.30;99.90;;;;;;4924450;29;20040;-92
2023/10/18 07:59:47;;;;;;;9.57;6.88;;;6.30;99.90;;;;;;4914337;29;20044;-91
2023/10/18 08:04:42;;;;;;;8.63;6.35;;;6.40;99.90;;;;;;4914994;29;20381;-94
2023/10/18 08:07:10;;;;;;;6.85;4.88;;;6.50;99.90;;;;;;4898956;29;20024;-94
2023/10/18 08:09:39;;;;;;;7.88;4.65;;;6.50;99.90;;;;;;4912742;29;20095;-92
2023/10/18 08:12:06;;;;;;;7.43;5.47;;;6.60;99.90;;;;;;4912413;29;20107;-93
2023/10/18 08:14:35;;;;;;;6.82;5.47;;;6.60;99.90;;;;;;4914551;29;20059;-94
2023/10/18 08:17:29;;;;;;;5.93;5.07;;;6.70;99.90;;;;;;4903851;29;20036;-95
2023/10/18 08:20:40;;;;;;;6.05;4.10;;;6.80;99.90;;;;;;4913332;29;20091;-95
2023/10/18 08:23:18;;;;;;;6.72;5.18;;;6.90;99.90;;;;;;4912307;29;20040;-92
2023/10/18 08:25:51;;;;;;;6.53;4.35;;;7.00;99.90;;;;;;4901913;29;20036;-93
2023/10/18 08:28:17;;;;;;;5.40;4.07;;;7.10;99.90;;;;;;4912875;29;20028;-94
2023/10/18 08:33:10;;;;;;;5.75;4.38;;;7.20;99.90;;;;;;4912240;29;20056;-94
2023/10/18 08:35:36;;;;;;;7.10;5.13;;;7.30;99.90;;;;;;4911391;29;20036;-94
2023/10/18 08:38:02;;;;;;;8.45;5.60;;;7.40;99.90;;;;;;4900151;29;20039;-90
2023/10/18 08:43:28;;;;;;;7.07;4.78;;;7.60;99.90;;;;;;4912017;29;20078;-93
2023/10/18 08:45:55;;;;;;;6.18;4.07;;;7.70;99.90;;;;;;4908506;29;20074;-90
2023/10/18 08:48:28;;;;;;;8.00;6.10;;;7.80;99.90;;;;;;4910526;29;20080;-91
2023/10/18 08:50:58;;;;;;;8.88;5.72;;;7.80;99.90;;;;;;4913691;29;20035;-93
2023/10/18 08:53:26;;;;;;;6.05;4.70;;;8.00;99.90;;;;;;4895684;29;20509;-94
2023/10/18 08:55:57;;;;;;;5.93;4.38;;;8.00;99.90;;;;;;4893910;29;20039;-93
2023/10/18 08:58:27;;;;;;;6.65;4.50;;;8.10;99.90;;;;;;4925385;29;20420;-92
2023/10/18 09:03:21;;;;;;;9.13;5.80;;;8.20;99.90;;;;;;4926594;29;20063;-95
2023/10/18 09:05:49;;;;;;;7.10;5.15;;;8.20;99.90;;;;;;4928374;29;20118;-92
2023/10/18 09:08:23;;;;;;;6.07;3.80;;;8.20;99.90;;;;;;4927580;29;20128;-92
2023/10/18 09:10:54;;;;;;;5.70;3.53;;;8.40;99.90;;;;;;4911718;29;20031;-90
2023/10/18 09:16:01;;;;;;;6.32;3.65;;;8.50;99.90;;;;;;4928970;29;20028;-90
2023/10/18 09:18:31;;;;;;;5.88;4.10;;;8.70;99.90;;;;;;4931505;29;20369;-90
2023/10/18 09:23:40;;;;;;;7.47;3.75;;;8.80;99.90;;;;;;4932667;29;20039;-91
2023/10/18 09:26:18;;;;;;;6.05;4.45;;;9.00;99.90;;;;;;4929970;29;20031;-94
2023/10/18 09:28:44;;;;;;;5.32;4.13;;;9.20;99.90;;;;;;4931464;29;20107;-90
2023/10/18 09:31:22;;;;;;;5.00;3.95;;;9.40;99.90;;;;;;4932537;29;20043;-91
2023/10/18 09:33:52;;;;;;;5.47;3.03;;;9.50;99.90;;;;;;4928812;29;20110;-93
2023/10/18 09:36:23;;;;;;;3.10;2.28;;;9.80;99.90;;;;;;4930657;29;20062;-91
2023/10/18 09:38:51;;;;;;;5.80;3.50;;;10.00;99.90;;;;;;4930650;29;20477;-94
2023/10/18 09:41:18;;;;;;;4.57;3.17;;;10.00;99.90;;;;;;4929988;29;20046;-93
2023/10/18 09:43:44;;;;;;;6.20;2.78;;;10.00;99.90;;;;;;4928535;29;20028;-92
2023/10/18 09:46:10;;;;;;;6.13;2.90;;;10.10;99.90;;;;;;4929669;29;20032;-93
2023/10/18 09:48:41;;;;;;;3.63;2.33;;;10.30;99.90;;;;;;4930504;29;20157;-95
2023/10/18 09:51:08;;;;;;;3.60;2.67;;;10.30;99.90;;;;;;4929334;29;20024;-92
2023/10/18 09:53:53;;;;;;;4.18;2.83;;;10.20;99.90;;;;;;4914366;29;20099;-92
2023/10/18 09:56:24;;;;;;;5.25;3.05;;;10.20;99.90;;;;;;4931000;29;20032;-91
2023/10/18 09:58:51;;;;;;;4.40;2.72;;;10.20;99.90;;;;;;4930474;29;20476;-92
2023/10/18 10:02:00;;;;;;;3.65;2.47;;;10.30;99.90;;;;;;4930626;29;20404;-92
2023/10/18 10:04:09;;;;;;;4.05;2.38;;;10.30;99.90;;;;;;4929272;29;20047;-88
2023/10/18 10:06:35;;;;;;;3.13;1.95;;;10.20;99.90;;;;;;4915977;29;20039;-93
2023/10/18 10:11:44;;;;;;;4.63;2.03;;;10.10;99.90;;;;;;4931921;29;20028;-93
2023/10/18 10:14:18;;;;;;;3.58;2.45;;;10.00;99.90;;;;;;4927237;29;20038;-90
2023/10/18 10:17:15;;;;;;;3.67;2.55;;;10.00;99.90;;;;;;4912952;29;20474;-92
2023/10/18 10:19:54;;;;;;;3.35;2.22;;;10.10;99.90;;;;;;4917914;29;20508;-94
2023/10/18 10:22:24;;;;;;;4.07;2.10;;;10.20;99.90;;;;;;4931151;29;20036;-93
2023/10/18 10:25:00;;;;;;;;;;;10.40;99.90;;;;;;4928351;29;20037;-91
2023/10/18 10:27:27;;;;;;;4.35;2.17;;;10.40;99.90;;;;;;4931111;29;19966;-93
2023/10/18 10:32:54;;;;;;;5.70;2.10;;;10.40;99.90;;;;;;4926705;29;20032;-93
2023/10/18 10:35:25;;;;;;;4.28;2.00;;;10.60;99.90;;;;;;4899538;29;20135;-90
2023/10/18 10:38:21;;;;;;;3.78;2.30;;;10.60;99.90;;;;;;4932039;29;20040;-90
2023/10/18 10:40:48;;;;;;;3.80;2.40;;;10.70;99.90;;;;;;4929833;29;20039;-91
2023/10/18 10:43:18;;;;;;;3.90;2.95;;;10.60;99.90;;;;;;4930004;29;20031;-92
2023/10/18 10:48:18;;;;;;;4.47;2.60;;;11.00;99.90;;;;;;4929190;29;20039;-94
2023/10/18 10:50:50;;;;;;;3.75;2.05;;;11.10;99.90;;;;;;4931357;29;20039;-92
2023/10/18 10:53:48;;;;;;;4.70;1.98;;;11.40;99.90;;;;;;4912969;29;20032;-94
2023/10/18 10:56:18;;;;;;;4.00;1.95;;;11.30;99.90;;;;;;4930704;29;20023;-92
2023/10/18 10:59:03;;;;;;;4.00;2.05;;;11.30;99.90;;;;;;4907936;29;20072;-94
2023/10/18 11:01:57;;;;;;;5.13;2.42;;;11.50;99.90;;;;;;4911215;29;20127;-92
2023/10/18 11:04:27;;;;;;;3.50;1.90;;;11.60;99.90;;;;;;4911056;29;20043;-93
2023/10/18 11:06:56;;;;;;;4.65;3.33;;;11.60;99.90;;;;;;4912009;29;20068;-88
2023/10/18 11:09:32;;;;;;;3.67;2.72;;;11.50;99.90;;;;;;4908421;29;20028;-91
2023/10/18 11:12:03;;;;;;;4.18;1.80;;;11.90;99.90;;;;;;4894394;29;20045;-92
2023/10/18 11:14:30;;;;;;;3.22;2.35;;;12.00;99.90;;;;;;4908697;29;20441;-94
2023/10/18 11:19:45;;;;;;;4.57;2.58;;;12.30;99.90;;;;;;4910971;29;20040;-92
2023/10/18 11:22:15;;;;;;;;;;;12.20;99.90;;;;;;4908628;29;20044;-90
2023/10/18 11:24:41;;;;;;;4.28;2.03;;;12.40;99.90;;;;;;4907191;29;19912;-90
2023/10/18 11:27:10;;;;;;;6.47;2.53;;;12.30;99.90;;;;;;4878582;29;20367;-90
2023/10/18 11:29:40;;;;;;;4.15;2.47;;;12.30;99.90;;;;;;4909413;29;20146;-95
2023/10/18 11:32:07;;;;;;;4.05;2.70;;;12.20;99.90;;;;;;4892704;29;20549;-91
2023/10/18 11:34:40;;;;;;;3.22;1.52;;;12.40;99.90;;;;;;4901284;29;20478;-90
2023/10/18 11:37:08;;;;;;;5.75;1.50;;;12.50;99.90;;;;;;4906215;29;20032;-90
2023/10/18 11:39:34;;;;;;;2.53;1.40;;;12.60;99.90;;;;;;4894370;29;20044;-88
2023/10/18 11:42:00;;;;;;;2.95;1.77;;;12.60;99.90;;;;;;4909807;29;20591;-91
2023/10/18 11:44:31;;;;;;;3.38;1.80;;;12.60;99.90;;;;;;4907281;29;20063;-92
2023/10/18 11:47:19;;;;;;;5.10;2.42;;;12.50;99.90;;;;;;4902492;29;20419;-94
2023/10/18 11:49:47;;;;;;;3.90;2.60;;;12.50;99.90;;;;;;4892182;29;20060;-91
2023/10/18 11:52:21;;;;;;;3.78;2.10;;;12.50;99.90;;;;;;4893919;29;20261;-93
2023/10/18 11:54:51;;;;;;;4.93;2.33;;;12.40;99.90;;;;;;4879897;29;20035;-93
2023/10/18 11:57:39;;;;;;;3.00;1.75;;;12.50;99.90;;;;;;4920916;29;20049;-92
2023/10/18 12:00:28;;;;;;;4.40;2.40;;;12.50;99.90;;;;;;4925549;29;20063;-94
2023/10/18 12:02:55;;;;;;;3.45;1.92;;;12.70;99.90;;;;;;4924044;29;20031;-92
2023/10/18 12:05:27;;;;;;;2.28;1.40;;;12.70;99.90;;;;;;4908861;29;20031;-92
2023/10/18 12:07:56;;;;;;;3.65;1.77;;;12.80;99.90;;;;;;4894257;29;20047;-91
2023/10/18 12:10:34;;;;;;;3.72;1.80;;;12.80;99.90;;;;;;4911599;29;20027;-90
2023/10/18 12:13:02;;;;;;;2.72;1.40;;;12.80;99.90;;;;;;4928766;29;20232;-90
2023/10/18 12:15:30;;;;;;;4.72;1.42;;;12.90;99.90;;;;;;4912860;29;20036;-93
2023/10/18 12:17:56;;;;;;;2.83;1.77;;;12.90;99.90;;;;;;4923450;29;20072;-92
2023/10/18 12:20:34;;;;;;;3.22;1.70;;;12.80;99.90;;;;;;4927301;29;20054;-94
2023/10/18 12:23:02;;;;;;;4.88;2.25;;;12.90;99.90;;;;;;4929603;29;20076;-94
2023/10/18 12:25:28;;;;;;;2.83;1.75;;;12.80;99.90;;;;;;4926278;29;20036;-92
2023/10/18 12:27:55;;;;;;;2.88;1.30;;;13.00;99.90;;;;;;4928175;29;20074;-92
2023/10/18 12:30:27;;;;;;;3.20;1.33;;;13.30;99.90;;;;;;4911948;29;20209;-92
2023/10/18 12:32:53;;;;;;;2.45;1.20;;;13.20;99.90;;;;;;4911946;29;20026;-92
2023/10/18 12:35:20;;;;;;;2.38;0.93;;;13.40;99.90;;;;;;4912272;29;20420;-91
2023/10/18 12:37:47;;;;;;;2.30;1.00;;;13.30;99.90;;;;;;4925193;29;20028;-92
2023/10/18 12:43:18;;;;;;;4.40;1.80;;;13.30;99.90;;;;;;4905074;29;20198;-91
2023/10/18 12:45:47;;;;;;;2.45;0.95;;;13.40;99.90;;;;;;4926784;29;20587;-88
2023/10/18 12:48:14;;;;;;;2.83;1.70;;;13.40;99.90;;;;;;4928122;29;20034;-92
2023/10/18 12:50:46;;;;;;;3.42;1.60;;;13.50;99.90;;;;;;4929180;29;20491;-91
2023/10/18 12:53:37;;;;;;;2.83;1.40;;;13.40;99.90;;;;;;4928365;29;20038;-93
2023/10/18 12:56:21;;;;;;;2.13;1.00;;;13.40;99.90;;;;;;4925244;29;20035;-91
2023/10/18 12:58:59;;;;;;;2.67;1.23;;;13.50;99.90;;;;;;4910987;29;20449;-90
2023/10/18 13:01:42;;;;;;;3.20;1.10;;;13.40;99.90;;;;;;4910583;29;20039;-91
2023/10/18 13:04:16;;;;;;;2.83;1.02;;;13.50;99.90;;;;;;4917367;29;20028;-90
2023/10/18 13:06:46;;;;;;;2.28;0.95;;;13.50;99.90;;;;;;4909771;29;20517;-92
2023/10/18 13:09:19;;;;;;;2.65;0.85;;;13.50;99.90;;;;;;4917750;29;20028;-89
2023/10/18 13:14:23;;;;;;;2.30;1.15;;;13.40;99.90;;;;;;4910797;29;20131;-93
2023/10/18 13:16:49;;;;;;;2.50;1.30;;;13.50;99.90;;;;;;4892556;29;20487;-88
2023/10/18 13:19:15;;;;;;;2.70;1.35;;;13.30;99.90;;;;;;4895292;29;20056;-92
2023/10/18 13:21:43;;;;;;;2.28;0.95;;;13.30;99.90;;;;;;4924009;29;20020;-90
2023/10/18 13:24:31;;;;;;;2.67;1.30;;;13.30;99.90;;;;;;4911122;29;20036;-91
2023/10/18 13:27:00;;;;;;;3.17;1.23;;;13.20;99.90;;;;;;4909018;29;20051;-93
2023/10/18 13:31:57;;;;;;;2.97;1.33;;;13.30;99.90;;;;;;4910026;29;20111;-89
2023/10/18 13:34:24;;;;;;;3.03;0.80;;;13.30;99.90;;;;;;4922902;29;20031;-91
2023/10/18 13:36:54;;;;;;;1.80;0.90;;;13.40;99.90;;;;;;4921011;29;20039;-94
2023/10/18 13:39:22;;;;;;;3.05;1.00;;;13.40;99.90;;;;;;4908624;29;20062;-89
2023/10/18 13:41:51;;;;;;;5.00;1.55;;;13.40;99.90;;;;;;4922283;29;20079;-92
2023/10/18 13:44:19;;;;;;;2.83;1.13;;;13.40;99.90;;;;;;4922745;29;20028;-91
2023/10/18 13:46:55;;;;;;;2.78;1.45;;;13.40;99.90;;;;;;4925313;29;20119;-91
2023/10/18 13:49:24;;;;;;;3.35;1.10;;;13.40;99.90;;;;;;4911494;29;20079;-91
2023/10/18 13:51:51;;;;;;;3.08;1.08;;;13.30;99.90;;;;;;4910760;29;20020;-92
2023/10/18 13:54:18;;;;;;;2.20;0.90;;;13.50;99.90;;;;;;4920163;29;20032;-90
2023/10/18 13:56:44;;;;;;;4.15;1.90;;;13.50;99.90;;;;;;4907835;29;20051;-93
2023/10/18 13:59:11;;;;;;;3.22;1.40;;;13.40;99.90;;;;;;4912031;29;20036;-91
2023/10/18 14:01:38;;;;;;;2.08;1.00;;;13.40;99.90;;;;;;4914673;29;20044;-91
2023/10/18 14:04:05;;;;;;;2.95;1.50;;;13.40;99.90;;;;;;4913549;29;20086;-91
2023/10/18 14:06:34;;;;;;;3.42;1.70;;;13.30;99.90;;;;;;4903996;29;20169;-94
2023/10/18 14:09:04;;;;;;;2.63;1.60;;;13.20;99.90;;;;;;4913269;29;20044;-91
2023/10/18 14:11:31;;;;;;;2.45;1.13;;;13.30;99.90;;;;;;4914336;29;20040;-92
2023/10/18 14:13:58;;;;;;;2.60;1.27;;;13.20;99.90;;;;;;4911777;29;20039;-90